• Join FlightAware (Why Join?)
  • Login
  • US Flag 
11:23PM EDT


 

Airport Tracker/Info


-or-


 

Live Flight TrackerFlight Track Log ✈ AWE1940 ✈ 16-Aug-2013 ✈ KCLT - KALB

Flight Track Log - Related Links

Times and Time Zones

All times are in EDT time to prevent confusion due to time zone crossing. See the AWE1940 flight status page for this flight to view local times or setup timezone preferences in your user account.

Time Position Orientation Groundspeed Altitude Reporting Facility
EDT Latitude Longitude Course Direction KTS MPH feet Rate Location/Type
10:31PM 35.2389 -80.9414 21° North 157 181 1,800  Level Atlanta Center
10:32PM 35.2906 -80.9167 21° North 221 254 3,500 1,740 Climbing Atlanta Center
10:33PM 35.3014 -80.8525 78° East 254 292 5,000 2,220 Climbing Atlanta Center
10:34PM 35.2942 -80.7333 94° East 276 318 8,100 2,340 Climbing Atlanta Center
10:35PM 35.2978 -80.6364 87° East 283 326 10,400 1,800 Climbing Atlanta Center
10:37PM 35.3589 -80.3878 73° East 348 400 14,000 1,860 Climbing Washington Center
10:38PM 35.3903 -80.2775 71° East 373 429 16,400 1,980 Climbing Washington Center
10:39PM 35.4308 -80.1500 69° East 390 449 18,100 1,860 Climbing Washington Center
10:40PM 35.4669 -80.0192 71° East 401 461 20,100 1,800 Climbing Washington Center
10:41PM 35.5014 -79.8758 74° East 412 474 21,700 1,500 Climbing Washington Center
10:42PM 35.5378 -79.7297 73° East 427 491 23,100 1,140 Climbing Washington Center
10:43PM 35.5856 -79.5533 72° East 468 539 24,000 960 Climbing Washington Center
10:44PM 35.6189 -79.4247 72° East 491 565 25,100 1,200 Climbing Washington Center
10:45PM 35.7008 -79.2728 56° Northeast 486 559 26,500 1,500 Climbing Washington Center
10:46PM 35.7886 -79.1333 52° Northeast 491 565 28,200 1,860 Climbing Washington Center
10:47PM 35.8719 -78.9986 53° Northeast 498 573 30,300 1,380 Climbing Washington Center
10:48PM 35.9569 -78.8636 52° Northeast 498 573 31,000 300 Climbing Washington Center
10:49PM 36.0419 -78.7286 52° Northeast 498 573 31,000  Level Washington Center
10:50PM 36.1269 -78.5906 53° Northeast 498 573 31,000  Level Washington Center
10:51PM 36.2136 -78.4522 52° Northeast 498 573 31,000  Level Washington Center
10:52PM 36.3050 -78.3008 53° Northeast 498 573 31,000  Level Washington Center
10:53PM 36.3894 -78.1619 53° Northeast 498 573 31,000  Level Washington Center
10:54PM 36.4714 -78.0278 53° Northeast 498 573 31,000  Level Washington Center
10:55PM 36.5536 -77.8853 54° Northeast 503 579 31,000  Level Washington Center
10:56PM 36.6375 -77.7456 53° Northeast 503 579 31,000  Level Washington Center
10:57PM 36.7233 -77.6081 52° Northeast 503 579 31,000  Level Washington Center
10:58PM 36.8050 -77.4675 54° Northeast 496 571 31,000  Level Washington Center
10:59PM 36.8883 -77.3292 53° Northeast 496 571 31,000  Level Washington Center
11:00PM 36.9717 -77.1908 53° Northeast 502 578 31,000  Level Washington Center
11:01PM 37.0461 -77.0622 54° Northeast 497 572 31,000  Level Washington Center
11:02PM 37.1272 -76.9231 54° Northeast 497 572 31,000  Level Washington Center
11:03PM 37.2058 -76.7836 55° Northeast 497 572 31,000  Level Washington Center
11:04PM 37.2906 -76.6439 53° Northeast 497 572 31,000  Level Washington Center
11:05PM 37.3731 -76.5039 53° Northeast 497 572 31,000  Level Washington Center
11:06PM 37.4553 -76.3608 54° Northeast 502 578 31,000  Level Washington Center
11:07PM 37.5542 -76.2442 43° Northeast 491 565 31,000  Level Washington Center
11:08PM 37.6714 -76.1506 32° Northeast 483 556 31,000  Level Washington Center
11:09PM 37.7908 -76.0306 38° Northeast 488 562 31,000  Level Washington Center
11:10PM 37.9017 -75.9286 36° Northeast 493 567 31,000  Level Washington Center
11:11PM 38.0103 -75.8236 37° Northeast 493 567 31,000  Level Washington Center
11:12PM 38.1250 -75.7211 35° Northeast 488 562 31,000  Level Washington Center
11:13PM 38.2356 -75.6156 37° Northeast 488 562 31,000  Level Washington Center
11:14PM 38.3358 -75.5256 35° Northeast 488 562 31,000  Level Washington Center
11:15PM 38.4608 -75.4644 21° North 476 548 31,000  Level Washington Center
11:16PM 38.5900 -75.4136 17° North 476 548 31,000  Level Washington Center
11:17PM 38.7169 -75.3603 18° North 481 554 31,000  Level Washington Center
11:18PM 38.8461 -75.3039 19° North 481 554 31,000  Level Washington Center
11:19PM 38.9753 -75.2525 17° North 481 554 31,000  Level Washington Center
11:20PM 39.1044 -75.1983 18° North 481 554 31,000  Level Washington Center
11:21PM 39.2333 -75.1442 18° North 481 554 31,000  Level Washington Center
11:22PM 39.3561 -75.0656 26° Northeast 481 554 31,000  Level Washington Center
11:23PM 39.4658 -74.9492 39° Northeast 494 568 31,000  Level Washington Center
11:24PM 39.5778 -74.8403 37° Northeast 494 568 31,000  Level Washington Center
11:25PM 39.7000 -74.7150 38° Northeast 499 574 31,000  Level Washington Center
11:25PM 39.7467 -74.6722 35° Northeast 512 589 31,000  Level New York Center
11:26PM 39.8697 -74.5492 37° Northeast 508 585 31,000 -420 Level New York Center
11:27PM 39.9686 -74.4489 38° Northeast 501 577 30,200 -900 Descending New York Center
11:28PM 40.0881 -74.3658 28° Northeast 501 577 29,300 -600 Descending New York Center
11:29PM 40.2200 -74.3428 North 470 541 29,000 -240 Descending New York Center
11:31PM 40.4719 -74.2925 North 459 528 28,700 -300 Descending Boston Center
11:33PM 40.5997 -74.2631 10° North 464 534 28,200 -480 Descending Boston Center
11:34PM 40.7458 -74.2400 North 469 540 27,700 -540 Descending Boston Center
11:35PM 40.8714 -74.2131 North 469 540 27,200 -480 Descending Boston Center
11:36PM 41.0031 -74.1839 North 469 540 26,800 -480 Descending Boston Center
11:37PM 41.1306 -74.1569 North 469 540 26,300 -420 Descending Boston Center
11:38PM 41.2750 -74.1222 10° North 469 540 26,000 -180 Descending Boston Center
11:39PM 41.4025 -74.0950 North 463 533 26,000 -180 Level Boston Center
11:40PM 41.5322 -74.0678 North 463 533 25,700 -1,440 Descending Boston Center
11:41PM 41.6450 -74.0431 North 468 539 23,200 -2,700 Descending Boston Center
11:42PM 41.7661 -74.0183 North 451 519 20,400 -2,880 Descending Boston Center
11:42PM 41.8394 -74.0061 North 435 501 18,800 -2,760 Descending Boston Center
11:43PM 41.9564 -73.9756 11° North 406 467 16,000 -2,520 Descending Boston Center
11:44PM 42.0672 -73.9558 North 395 455 13,500 -2,400 Descending Boston Center
11:45PM 42.1633 -73.9303 11° North 377 434 11,500 -1,560 Descending Boston Center
11:46PM 42.2553 -73.9128 North 329 379 10,600 -1,140 Descending Boston Center
11:47PM 42.3411 -73.8950 North 274 315 9,200 -1,200 Descending Boston Center
11:48PM 42.3642 -73.8844 19° North 291 335 8,700 -1,500 Descending Boston Center
11:49PM 42.4519 -73.8583 12° North 271 312 6,800 -1,800 Descending Boston Center
11:50PM 42.5336 -73.8347 12° North 277 319 5,100 -1,440 Descending Boston Center
11:51PM 42.5881 -73.8192 12° North 272 313 4,000 -1,380 Descending Boston Center
11:52PM 42.6467 -73.7922 19° North 234 269 2,500 -1,320 Descending Boston Center
11:53PM 42.7089 -73.8075 350° North 125 144 900 -1,140 Descending Boston Center